createdAt,value
2018-12-24T00:01:54.656Z,91.00
2018-12-24T00:04:23.925Z,91.00
2018-12-24T00:06:53.491Z,90.70
2018-12-24T00:09:22.774Z,90.70
2018-12-24T00:11:52.076Z,91.30
2018-12-24T00:14:21.693Z,91.90
2018-12-24T00:16:50.957Z,93.00
2018-12-24T00:19:20.249Z,92.40
2018-12-24T00:21:49.537Z,90.20
2018-12-24T00:24:18.809Z,90.80
2018-12-24T00:26:48.102Z,90.10
2018-12-24T00:29:17.698Z,88.30
2018-12-24T00:31:46.989Z,89.30
2018-12-24T00:34:16.255Z,89.50
2018-12-24T00:36:45.540Z,90.50
2018-12-24T00:39:15.176Z,91.10
2018-12-24T00:41:44.464Z,91.00
2018-12-24T00:44:14.021Z,89.50
2018-12-24T00:46:43.532Z,90.10
2018-12-24T00:49:12.824Z,90.40
2018-12-24T00:51:42.090Z,90.40
2018-12-24T00:54:11.378Z,89.80
2018-12-24T00:56:40.948Z,89.70
2018-12-24T00:59:10.235Z,90.20
2018-12-24T01:01:39.493Z,90.00
2018-12-24T01:04:08.770Z,89.30
2018-12-24T01:06:38.049Z,89.10
2018-12-24T01:09:07.317Z,88.70
2018-12-24T01:11:36.599Z,89.00
2018-12-24T01:14:05.858Z,88.30
2018-12-24T01:16:35.147Z,89.50
2018-12-24T01:19:04.409Z,89.00
2018-12-24T01:21:33.693Z,89.00
2018-12-24T01:24:02.974Z,89.20
2018-12-24T01:26:32.462Z,88.80
2018-12-24T01:29:01.729Z,89.30
2018-12-24T01:31:31.078Z,89.00
2018-12-24T01:34:00.474Z,88.20
2018-12-24T01:36:29.737Z,88.50
2018-12-24T01:38:59.024Z,88.30
2018-12-24T01:41:28.306Z,88.80
2018-12-24T01:43:57.585Z,89.00
2018-12-24T01:46:26.909Z,89.10
2018-12-24T01:48:56.182Z,88.70
2018-12-24T01:51:26.542Z,88.30
2018-12-24T01:53:55.824Z,88.90
2018-12-24T01:56:25.418Z,89.10
2018-12-24T01:58:54.706Z,88.90
2018-12-24T02:01:23.990Z,89.40
2018-12-24T02:03:53.257Z,88.20
2018-12-24T02:06:22.541Z,88.00
2018-12-24T02:08:51.845Z,87.20
2018-12-24T02:11:21.100Z,87.00
2018-12-24T02:13:50.461Z,87.20
2018-12-24T02:16:19.728Z,88.30
2018-12-24T02:18:49.998Z,88.10
2018-12-24T02:21:19.312Z,87.70
2018-12-24T02:23:48.565Z,88.20
2018-12-24T02:26:17.855Z,88.50
2018-12-24T02:28:47.125Z,87.80
2018-12-24T02:31:16.402Z,88.00
2018-12-24T02:33:45.685Z,88.70
2018-12-24T02:36:15.269Z,88.60
2018-12-24T02:38:45.626Z,88.40
2018-12-24T02:41:15.202Z,88.50
2018-12-24T02:43:44.495Z,88.90
2018-12-24T02:46:13.759Z,89.00
2018-12-24T02:48:43.059Z,89.20
2018-12-24T02:51:12.313Z,89.10
2018-12-24T02:53:41.598Z,88.70
2018-12-24T02:56:10.886Z,89.60
2018-12-24T02:58:40.168Z,89.20
2018-12-24T03:01:09.434Z,88.80
2018-12-24T03:03:39.125Z,89.10
2018-12-24T03:06:08.484Z,88.50
2018-12-24T03:08:37.753Z,88.30
2018-12-24T03:11:07.044Z,89.10
2018-12-24T03:13:36.652Z,88.80
2018-12-24T03:16:05.927Z,88.70
2018-12-24T03:18:35.209Z,88.50
2018-12-24T03:21:05.506Z,88.60
2018-12-24T03:23:34.790Z,89.30
2018-12-24T03:26:04.052Z,88.50
2018-12-24T03:28:33.342Z,88.80
2018-12-24T03:31:03.597Z,88.90
2018-12-24T03:33:32.946Z,89.20
2018-12-24T03:36:02.514Z,88.50
2018-12-24T03:38:31.793Z,88.30
2018-12-24T03:41:01.162Z,88.50
2018-12-24T03:43:30.424Z,88.10
2018-12-24T03:45:59.700Z,88.10
2018-12-24T03:48:28.985Z,88.50
2018-12-24T03:50:58.258Z,88.20
2018-12-24T03:53:27.561Z,88.10
2018-12-24T03:55:56.826Z,88.20
2018-12-24T03:58:26.102Z,88.50
2018-12-24T04:00:55.381Z,88.70
2018-12-24T04:03:24.924Z,88.50
2018-12-24T04:05:54.218Z,88.40
2018-12-24T04:08:23.741Z,88.20
2018-12-24T04:10:53.966Z,87.70
2018-12-24T04:13:23.231Z,87.70
2018-12-24T04:15:53.346Z,87.40
2018-12-24T04:18:22.609Z,87.20
2018-12-24T04:20:51.896Z,87.50
2018-12-24T04:23:21.157Z,87.70
2018-12-24T04:25:50.445Z,88.00
2018-12-24T04:28:19.713Z,87.80
2018-12-24T04:30:48.993Z,87.60
2018-12-24T04:33:20.462Z,87.50
2018-12-24T04:35:49.729Z,87.60
2018-12-24T04:38:19.006Z,87.40
2018-12-24T04:40:48.276Z,87.20
2018-12-24T04:43:17.576Z,87.50
2018-12-24T04:45:46.986Z,86.60
2018-12-24T04:48:16.247Z,86.70
2018-12-24T04:50:45.529Z,86.80
2018-12-24T04:53:14.794Z,86.50
2018-12-24T04:55:44.364Z,86.20
2018-12-24T04:58:13.625Z,86.20
2018-12-24T05:00:42.915Z,86.40
2018-12-24T05:03:12.186Z,86.40
2018-12-24T05:05:41.470Z,86.50
2018-12-24T05:08:10.746Z,85.90
2018-12-24T05:10:40.279Z,86.50
2018-12-24T05:13:09.573Z,86.60
2018-12-24T05:15:38.832Z,86.40
2018-12-24T05:18:08.121Z,86.60
2018-12-24T05:20:37.382Z,86.40
2018-12-24T05:23:06.659Z,86.20
2018-12-24T05:25:35.925Z,86.80
2018-12-24T05:28:05.215Z,86.20
2018-12-24T05:30:34.502Z,85.80
2018-12-24T05:33:03.801Z,85.90
2018-12-24T05:35:33.097Z,86.30
2018-12-24T05:38:02.362Z,86.00
2018-12-24T05:40:31.645Z,85.80
2018-12-24T05:43:00.915Z,85.70
2018-12-24T05:45:30.205Z,85.90
2018-12-24T05:47:59.483Z,85.60
2018-12-24T05:50:29.008Z,85.60
2018-12-24T05:52:58.318Z,85.20
2018-12-24T05:55:27.957Z,85.50
2018-12-24T05:57:57.221Z,85.80
2018-12-24T06:00:26.506Z,85.50
2018-12-24T06:02:55.771Z,85.80
2018-12-24T06:05:25.053Z,85.50
2018-12-24T06:07:54.319Z,85.60
2018-12-24T06:10:23.602Z,85.70
2018-12-24T06:12:52.898Z,85.50
2018-12-24T06:15:22.174Z,85.80
2018-12-24T06:17:51.452Z,86.20
2018-12-24T06:20:20.717Z,86.00
2018-12-24T06:22:50.011Z,86.70
2018-12-24T06:25:19.286Z,87.40
2018-12-24T06:27:48.564Z,85.80
2018-12-24T06:30:17.837Z,84.90
2018-12-24T06:32:47.341Z,85.40
2018-12-24T06:35:16.949Z,84.50
2018-12-24T06:37:46.215Z,84.40
2018-12-24T06:40:15.489Z,83.70
2018-12-24T06:42:44.756Z,84.10
2018-12-24T06:45:14.120Z,84.80
2018-12-24T06:47:43.410Z,84.60
2018-12-24T06:50:12.699Z,84.20
2018-12-24T06:52:41.963Z,83.90
2018-12-24T06:55:11.247Z,84.10
2018-12-24T06:57:40.505Z,82.50
2018-12-24T07:00:09.789Z,83.40
2018-12-24T07:02:39.053Z,83.50
2018-12-24T07:05:08.340Z,83.40
2018-12-24T07:07:37.614Z,83.30
2018-12-24T07:10:07.096Z,83.60
2018-12-24T07:12:36.369Z,83.60
2018-12-24T07:15:05.636Z,83.80
2018-12-24T07:17:34.905Z,84.30
2018-12-24T07:20:04.347Z,84.80
2018-12-24T07:22:33.616Z,85.00
2018-12-24T07:25:02.876Z,85.20
2018-12-24T07:27:32.161Z,85.20
2018-12-24T07:30:01.439Z,85.80
2018-12-24T07:32:30.724Z,85.60
2018-12-24T07:35:00.009Z,85.80
2018-12-24T07:37:29.300Z,85.70
2018-12-24T07:39:58.587Z,85.20
2018-12-24T07:42:27.854Z,85.10
2018-12-24T07:44:57.134Z,85.60
2018-12-24T07:47:26.412Z,86.20
2018-12-24T07:49:55.681Z,85.90
2018-12-24T07:52:25.207Z,86.00
2018-12-24T07:54:54.494Z,86.00
2018-12-24T07:57:23.756Z,85.80
2018-12-24T07:59:53.046Z,86.00
2018-12-24T08:02:22.306Z,86.10
2018-12-24T08:04:51.594Z,86.50
2018-12-24T08:07:20.856Z,86.20
2018-12-24T08:09:50.141Z,86.00
2018-12-24T08:12:19.410Z,85.60
2018-12-24T08:14:48.698Z,87.20
2018-12-24T08:17:17.962Z,86.20
2018-12-24T08:19:47.257Z,85.20
2018-12-24T08:22:16.559Z,85.30
2018-12-24T08:24:45.896Z,85.60
2018-12-24T08:27:15.441Z,85.50
2018-12-24T08:29:44.717Z,85.00
2018-12-24T08:32:14.007Z,85.10
2018-12-24T08:34:43.285Z,84.20
2018-12-24T08:37:12.551Z,84.80
2018-12-24T08:39:41.851Z,84.60
2018-12-24T08:42:11.117Z,84.70
2018-12-24T08:44:41.919Z,85.60
2018-12-24T08:47:11.452Z,85.50
2018-12-24T08:49:40.724Z,85.10
2018-12-24T08:52:10.001Z,85.30
2018-12-24T08:54:39.278Z,84.70
2018-12-24T08:57:08.794Z,84.80
2018-12-24T08:59:38.067Z,84.60
2018-12-24T09:02:07.600Z,84.30
2018-12-24T09:04:36.894Z,83.80
2018-12-24T09:07:06.186Z,83.60
2018-12-24T09:09:35.471Z,83.20
2018-12-24T09:12:04.808Z,82.80
2018-12-24T09:14:34.189Z,83.10
2018-12-24T09:17:04.543Z,82.50
2018-12-24T09:19:33.825Z,83.20
2018-12-24T09:22:03.366Z,83.30
2018-12-24T09:24:32.646Z,83.00
2018-12-24T09:27:01.925Z,83.60
2018-12-24T09:29:31.230Z,84.20
2018-12-24T09:32:00.764Z,83.80
2018-12-24T09:34:30.061Z,83.70
2018-12-24T09:36:59.334Z,83.90
2018-12-24T09:39:28.619Z,84.60
2018-12-24T09:41:57.891Z,84.80
2018-12-24T09:44:27.501Z,84.50
2018-12-24T09:46:56.764Z,85.00
2018-12-24T09:49:26.107Z,84.90
2018-12-24T09:51:55.390Z,84.40
2018-12-24T09:54:24.695Z,83.90
2018-12-24T09:56:53.957Z,83.40
2018-12-24T09:59:23.246Z,83.70
2018-12-24T10:01:52.539Z,83.00
2018-12-24T10:04:23.257Z,83.20
2018-12-24T10:06:52.541Z,83.00
2018-12-24T10:09:22.143Z,82.30
2018-12-24T10:11:51.413Z,82.10
2018-12-24T10:14:20.709Z,82.00
2018-12-24T10:16:50.249Z,82.00
2018-12-24T10:19:19.523Z,81.70
2018-12-24T10:21:48.825Z,81.70
2018-12-24T10:24:18.097Z,81.10
2018-12-24T10:26:47.377Z,81.00
2018-12-24T10:29:16.680Z,80.20
2018-12-24T10:31:45.942Z,78.90
2018-12-24T10:34:15.226Z,79.80
2018-12-24T10:36:44.493Z,80.80
2018-12-24T10:39:13.773Z,80.30
2018-12-24T10:41:43.219Z,79.90
2018-12-24T10:44:12.578Z,78.60
2018-12-24T10:46:41.868Z,77.40
2018-12-24T10:49:11.244Z,77.40
2018-12-24T10:51:40.780Z,76.90
2018-12-24T10:54:10.063Z,76.10
2018-12-24T10:56:39.948Z,76.10
2018-12-24T10:59:09.425Z,76.70
2018-12-24T11:01:38.712Z,74.70
2018-12-24T11:04:07.981Z,75.10
2018-12-24T11:06:37.286Z,74.40
2018-12-24T11:09:07.008Z,74.70
2018-12-24T11:11:37.613Z,74.70
2018-12-24T11:14:06.919Z,74.20
2018-12-24T11:16:36.181Z,75.20
2018-12-24T11:19:05.469Z,75.80
2018-12-24T11:21:34.763Z,75.50
2018-12-24T11:24:04.038Z,75.70
2018-12-24T11:26:33.338Z,75.90
2018-12-24T11:29:02.624Z,75.40
2018-12-24T11:31:31.922Z,76.00
2018-12-24T11:34:01.224Z,75.60
2018-12-24T11:36:30.509Z,75.30
2018-12-24T11:38:59.810Z,75.70
2018-12-24T11:41:29.092Z,75.80
2018-12-24T11:43:58.377Z,76.30
2018-12-24T11:46:27.677Z,76.10
2018-12-24T11:48:56.969Z,76.90
2018-12-24T11:51:26.579Z,77.30
2018-12-24T11:53:55.845Z,77.20
2018-12-24T11:56:25.386Z,77.40
2018-12-24T11:58:54.899Z,77.70
2018-12-24T12:01:24.185Z,77.40
2018-12-24T12:03:53.449Z,77.20
2018-12-24T12:06:22.730Z,77.70
2018-12-24T12:08:51.995Z,76.40
2018-12-24T12:11:21.281Z,76.10
2018-12-24T12:13:50.805Z,76.10
2018-12-24T12:16:20.095Z,76.20
2018-12-24T12:18:49.363Z,76.00
2018-12-24T12:21:18.671Z,75.40
2018-12-24T12:23:47.938Z,75.50
2018-12-24T12:26:17.241Z,74.90
2018-12-24T12:28:47.486Z,75.00
2018-12-24T12:31:16.791Z,74.80
2018-12-24T12:33:46.062Z,74.90
2018-12-24T12:36:15.351Z,75.40
2018-12-24T12:38:44.613Z,75.50
2018-12-24T12:41:14.154Z,74.80
2018-12-24T12:43:43.750Z,76.00
2018-12-24T12:46:13.065Z,75.20
2018-12-24T12:48:42.349Z,75.60
2018-12-24T12:51:11.618Z,75.70
2018-12-24T12:53:40.910Z,75.70
2018-12-24T12:56:10.193Z,75.80
2018-12-24T12:58:39.492Z,78.70
2018-12-24T13:01:08.760Z,76.50
2018-12-24T13:03:38.058Z,75.70
2018-12-24T13:06:07.333Z,74.30
2018-12-24T13:08:36.648Z,75.00
2018-12-24T13:11:05.916Z,75.10
2018-12-24T13:13:36.937Z,75.10
2018-12-24T13:16:06.179Z,75.20
2018-12-24T13:18:35.478Z,74.60
2018-12-24T13:21:04.762Z,73.90
2018-12-24T13:23:34.049Z,73.20
2018-12-24T13:26:03.314Z,73.10
2018-12-24T13:28:32.617Z,73.40
2018-12-24T13:31:03.947Z,73.40
2018-12-24T13:33:33.233Z,73.40
2018-12-24T13:36:02.504Z,74.20
2018-12-24T13:38:31.804Z,74.80
2018-12-24T13:41:01.075Z,74.20
2018-12-24T13:43:30.368Z,73.40
2018-12-24T13:46:07.870Z,72.60
2018-12-24T13:49:06.773Z,71.80
2018-12-24T13:51:35.976Z,71.90
2018-12-24T13:54:05.136Z,72.10
2018-12-24T13:56:34.317Z,71.90
2018-12-24T13:59:03.480Z,72.00
2018-12-24T14:01:32.785Z,70.90
2018-12-24T14:04:02.016Z,70.50
2018-12-24T14:06:31.196Z,69.60
2018-12-24T14:09:00.372Z,68.80
2018-12-24T14:11:29.582Z,69.40
2018-12-24T14:13:58.806Z,69.10
2018-12-24T14:16:27.977Z,69.70
2018-12-24T14:18:57.161Z,69.20
2018-12-24T14:21:26.353Z,69.30
2018-12-24T14:23:56.725Z,70.50
2018-12-24T14:26:25.944Z,70.00
2018-12-24T14:28:55.130Z,70.20
2018-12-24T14:31:24.321Z,70.10
2018-12-24T14:33:53.757Z,71.00
2018-12-24T14:36:22.959Z,71.50
2018-12-24T14:38:53.128Z,71.90
2018-12-24T14:41:22.288Z,71.50
2018-12-24T14:43:51.475Z,71.20
2018-12-24T14:46:25.543Z,71.40
2018-12-24T14:48:51.569Z,71.70
2018-12-24T14:51:20.762Z,71.80
2018-12-24T14:53:49.946Z,72.80
2018-12-24T14:56:19.096Z,72.40
2018-12-24T14:58:48.272Z,72.70
2018-12-24T15:01:17.444Z,72.40
2018-12-24T15:03:46.640Z,72.90
2018-12-24T15:06:15.832Z,72.90
2018-12-24T15:08:45.003Z,72.00
2018-12-24T15:11:14.180Z,73.20
2018-12-24T15:13:43.353Z,73.20
2018-12-24T15:16:12.857Z,72.60
2018-12-24T15:18:42.361Z,72.90
2018-12-24T15:21:11.537Z,73.30
2018-12-24T15:23:40.715Z,73.00
2018-12-24T15:26:09.919Z,73.20
2018-12-24T15:28:39.080Z,73.50
2018-12-24T15:31:09.084Z,72.70
2018-12-24T15:33:38.267Z,72.80
2018-12-24T15:36:07.459Z,73.00
2018-12-24T15:38:36.648Z,73.00
2018-12-24T15:41:05.814Z,73.10
2018-12-24T15:43:35.014Z,73.50
2018-12-24T15:46:04.181Z,73.70
2018-12-24T15:48:36.277Z,74.10
2018-12-24T15:51:05.442Z,75.10
2018-12-24T15:53:37.273Z,75.40
2018-12-24T15:56:06.807Z,73.80
2018-12-24T15:58:36.023Z,74.00
2018-12-24T16:01:05.225Z,74.50
2018-12-24T16:03:36.964Z,74.50
2018-12-24T16:06:05.271Z,74.50
2018-12-24T16:08:34.455Z,74.90
2018-12-24T16:11:03.627Z,74.90
2018-12-24T16:13:32.838Z,75.00
2018-12-24T16:16:02.021Z,74.80
2018-12-24T16:18:31.217Z,75.30
2018-12-24T16:21:00.377Z,75.50
2018-12-24T16:23:29.563Z,75.50
2018-12-24T16:25:58.761Z,75.40
2018-12-24T16:28:27.938Z,75.80
2018-12-24T16:30:57.125Z,75.80
2018-12-24T16:33:26.313Z,75.70
2018-12-24T16:35:55.734Z,75.80
2018-12-24T16:38:24.905Z,76.20
2018-12-24T16:40:54.103Z,76.30
2018-12-24T16:43:23.261Z,76.10
2018-12-24T16:45:52.442Z,75.80
2018-12-24T16:48:21.747Z,76.20
2018-12-24T16:50:51.077Z,76.30
2018-12-24T16:53:20.431Z,76.80
2018-12-24T16:55:49.608Z,76.30
2018-12-24T16:58:18.791Z,76.90
2018-12-24T17:00:48.022Z,77.20
2018-12-24T17:03:19.953Z,77.60
2018-12-24T17:05:49.123Z,76.90
2018-12-24T17:08:18.453Z,76.70
2018-12-24T17:10:47.620Z,77.20
2018-12-24T17:13:17.005Z,77.60
2018-12-24T17:15:46.312Z,77.80
2018-12-24T17:18:15.592Z,78.30
2018-12-24T17:20:45.098Z,78.70
2018-12-24T17:23:14.437Z,76.40
2018-12-24T17:25:43.738Z,77.00
2018-12-24T17:28:12.926Z,76.70
2018-12-24T17:30:42.416Z,77.00
2018-12-24T17:33:11.610Z,76.70
2018-12-24T17:35:40.809Z,77.30
2018-12-24T17:38:10.080Z,76.40
2018-12-24T17:40:39.401Z,76.80
2018-12-24T17:43:08.553Z,77.00
2018-12-24T17:45:37.737Z,77.10
2018-12-24T17:48:06.905Z,77.30
2018-12-24T17:50:36.183Z,77.60
2018-12-24T17:53:05.435Z,77.30
2018-12-24T17:55:34.589Z,78.60
2018-12-24T17:58:03.759Z,77.70
2018-12-24T18:00:32.944Z,78.00
2018-12-24T18:03:02.139Z,77.60
2018-12-24T18:05:31.337Z,78.00
2018-12-24T18:08:00.501Z,78.40
2018-12-24T18:10:32.632Z,78.40
2018-12-24T18:13:01.992Z,78.50
2018-12-24T18:15:31.126Z,78.80
2018-12-24T18:18:00.306Z,78.80
2018-12-24T18:20:29.468Z,78.90
2018-12-24T18:22:59.784Z,79.60
2018-12-24T18:25:28.954Z,79.40
2018-12-24T18:27:58.124Z,79.40
2018-12-24T18:30:30.096Z,79.60
2018-12-24T18:32:59.291Z,79.30
2018-12-24T18:35:28.448Z,79.40
2018-12-24T18:37:57.624Z,79.40
2018-12-24T18:40:26.795Z,79.30
2018-12-24T18:42:56.277Z,80.00
2018-12-24T18:45:25.473Z,80.30
2018-12-24T18:47:54.625Z,81.00
2018-12-24T18:50:23.815Z,81.50
2018-12-24T18:52:53.009Z,82.30
2018-12-24T18:55:22.192Z,81.80
2018-12-24T18:57:51.390Z,80.60
2018-12-24T19:00:20.572Z,79.80
2018-12-24T19:02:49.760Z,80.00
2018-12-24T19:05:18.924Z,80.70
2018-12-24T19:07:48.113Z,80.50
2018-12-24T19:10:17.293Z,80.10
2018-12-24T19:12:46.478Z,80.10
2018-12-24T19:15:15.644Z,79.70
2018-12-24T19:17:44.838Z,79.70
2018-12-24T19:20:14.035Z,79.60
2018-12-24T19:22:43.272Z,79.30
2018-12-24T19:25:12.470Z,79.70
2018-12-24T19:27:41.726Z,79.70
2018-12-24T19:30:10.907Z,80.10
2018-12-24T19:32:40.100Z,79.40
2018-12-24T19:35:09.274Z,79.60
2018-12-24T19:37:38.445Z,79.50
2018-12-24T19:40:07.657Z,79.90
2018-12-24T19:42:36.836Z,80.20
2018-12-24T19:45:06.010Z,80.40
2018-12-24T19:47:35.192Z,80.30
2018-12-24T19:50:04.364Z,80.50
2018-12-24T19:52:33.557Z,80.00
2018-12-24T19:55:03.055Z,79.70
2018-12-24T19:57:32.232Z,79.50
2018-12-24T20:00:01.420Z,79.40
2018-12-24T20:02:30.598Z,79.20
2018-12-24T20:04:59.792Z,79.30
2018-12-24T20:07:28.952Z,79.60
2018-12-24T20:09:58.146Z,79.50
2018-12-24T20:12:27.493Z,79.30
2018-12-24T20:14:56.674Z,79.00
2018-12-24T20:17:25.856Z,79.10
2018-12-24T20:19:55.050Z,79.00
2018-12-24T20:22:24.224Z,78.60
2018-12-24T20:24:53.425Z,78.70
2018-12-24T20:27:23.482Z,78.70
2018-12-24T20:29:52.828Z,79.60
2018-12-24T20:32:22.000Z,79.20
2018-12-24T20:34:51.197Z,80.20
2018-12-24T20:37:20.377Z,80.40
2018-12-24T20:39:49.568Z,80.80
2018-12-24T20:42:18.732Z,80.70
2018-12-24T20:44:48.273Z,80.10
2018-12-24T20:47:17.438Z,80.30
2018-12-24T20:49:46.622Z,80.20
2018-12-24T20:52:15.793Z,80.00
2018-12-24T20:54:44.985Z,80.40
2018-12-24T20:57:14.158Z,80.50
2018-12-24T20:59:43.349Z,81.60
2018-12-24T21:02:12.795Z,81.30
2018-12-24T21:04:43.050Z,80.90
2018-12-24T21:07:12.247Z,81.70
2018-12-24T21:09:41.557Z,82.10
2018-12-24T21:12:10.805Z,82.70
2018-12-24T21:14:39.989Z,83.00
2018-12-24T21:17:09.165Z,83.10
2018-12-24T21:19:38.362Z,83.50
2018-12-24T21:22:07.545Z,83.60
2018-12-24T21:24:36.736Z,83.50
2018-12-24T21:27:05.900Z,83.60
2018-12-24T21:29:35.085Z,83.50
2018-12-24T21:32:04.284Z,83.50
2018-12-24T21:34:33.491Z,83.50
2018-12-24T21:37:02.688Z,82.80
2018-12-24T21:39:31.844Z,83.00
2018-12-24T21:42:01.032Z,83.00
2018-12-24T21:44:30.204Z,83.70
2018-12-24T21:46:59.396Z,84.30
2018-12-24T21:49:29.560Z,84.30
2018-12-24T21:51:58.762Z,84.50
2018-12-24T21:54:27.935Z,84.90
2018-12-24T21:56:58.096Z,85.40
2018-12-24T21:59:27.273Z,85.20
2018-12-24T22:01:56.504Z,85.20
2018-12-24T22:04:25.676Z,85.70
2018-12-24T22:06:54.880Z,86.20
2018-12-24T22:09:24.075Z,86.30
2018-12-24T22:11:53.261Z,86.20
2018-12-24T22:14:22.420Z,86.40
2018-12-24T22:16:51.611Z,86.20
2018-12-24T22:19:20.776Z,86.30
2018-12-24T22:21:49.978Z,86.00
2018-12-24T22:24:19.138Z,86.30
2018-12-24T22:26:48.593Z,86.40
2018-12-24T22:29:17.781Z,86.20
2018-12-24T22:31:46.936Z,86.20
2018-12-24T22:34:16.132Z,85.70
2018-12-24T22:36:45.304Z,86.00
2018-12-24T22:39:14.484Z,85.80
2018-12-24T22:41:43.677Z,86.40
2018-12-24T22:44:12.844Z,86.30
2018-12-24T22:46:42.339Z,86.10
2018-12-24T22:49:11.517Z,86.30
2018-12-24T22:51:40.700Z,86.20
2018-12-24T22:54:09.891Z,86.50
2018-12-24T22:56:39.076Z,86.50
2018-12-24T22:59:08.248Z,86.30
2018-12-24T23:01:37.559Z,86.30
2018-12-24T23:04:06.842Z,86.40
2018-12-24T23:06:36.021Z,86.60
2018-12-24T23:09:07.250Z,86.50
2018-12-24T23:11:36.414Z,86.60
2018-12-24T23:14:05.613Z,86.60
2018-12-24T23:16:34.815Z,86.60
2018-12-24T23:19:04.008Z,86.90
2018-12-24T23:21:33.197Z,87.10
2018-12-24T23:24:02.365Z,87.30
2018-12-24T23:26:31.548Z,87.00
2018-12-24T23:29:00.714Z,86.90
2018-12-24T23:31:29.903Z,86.90
2018-12-24T23:33:59.060Z,86.60
2018-12-24T23:36:28.255Z,86.60
2018-12-24T23:38:57.432Z,86.60
2018-12-24T23:41:26.607Z,86.40
2018-12-24T23:43:55.805Z,86.50
2018-12-24T23:46:24.981Z,86.60
2018-12-24T23:48:57.751Z,86.40
2018-12-24T23:51:25.060Z,86.60
2018-12-24T23:53:54.507Z,86.70
2018-12-24T23:56:23.691Z,86.90
2018-12-24T23:58:52.869Z,86.90
